Time;durP1;ratioP1;P1;durP2;ratioP2;P2;SDS_P1;SDS_P2;PMS_P1;PMS_P2;Temp;Humidity;BMP_temperature;BMP_pressure;BME280_temperature;BME280_humidity;BME280_pressure;Samples;Min_cycle;Max_cycle;Signal;HPM_P1;HPM_P2
2024/02/06 12:26:25;;;;;;;16.08;5.05;;;19.30;71.30;;;;;;5060668;22;20051;-78
2024/02/06 12:29:01;;;;;;;12.60;4.20;;;19.30;70.40;;;;;;5055379;28;20033;-76
2024/02/06 12:31:27;;;;;;;17.38;4.90;;;19.40;70.30;;;;;;5055185;28;20044;-76
2024/02/06 12:33:53;;;;;;;13.38;5.28;;;19.50;70.10;;;;;;5055221;28;20037;-74
2024/02/06 12:36:19;;;;;;;13.75;5.15;;;19.60;69.90;;;;;;5054722;28;20371;-75
2024/02/06 12:38:51;;;;;;;13.60;5.35;;;19.60;69.90;;;;;;5055103;28;20124;-74
2024/02/06 12:41:17;;;;;;;15.95;5.38;;;19.60;69.50;;;;;;5054934;28;20037;-78
2024/02/06 12:43:43;;;;;;;17.65;4.80;;;19.70;69.70;;;;;;5054726;28;20087;-76
2024/02/06 12:46:08;;;;;;;10.98;4.07;;;19.60;69.50;;;;;;5055022;28;20045;-79
2024/02/06 12:48:35;;;;;;;11.65;4.95;;;19.50;69.40;;;;;;5054704;28;20112;-73
2024/02/06 12:51:01;;;;;;;16.42;4.82;;;19.40;69.70;;;;;;5053429;28;20034;-73
2024/02/06 12:53:27;;;;;;;13.20;4.07;;;19.30;69.90;;;;;;5054557;28;20041;-74
2024/02/06 12:55:54;;;;;;;17.77;4.53;;;19.10;70.00;;;;;;5052863;28;20052;-80
2024/02/06 12:58:20;;;;;;;13.02;4.15;;;19.10;70.20;;;;;;5053694;28;20041;-77
2024/02/06 13:00:57;;;;;;;14.68;3.97;;;19.10;70.30;;;;;;5054894;28;20483;-76
2024/02/06 13:03:23;;;;;;;14.40;4.75;;;19.00;70.20;;;;;;5054656;28;20116;-74
2024/02/06 13:06:00;;;;;;;15.63;4.43;;;19.00;70.60;;;;;;5054421;28;20025;-73
2024/02/06 13:08:26;;;;;;;13.27;4.75;;;19.00;71.20;;;;;;5057444;28;20029;-74
2024/02/06 13:10:53;;;;;;;13.45;4.75;;;19.10;70.90;;;;;;5059944;28;20049;-74
2024/02/06 13:13:20;;;;;;;11.68;3.92;;;19.10;70.20;;;;;;5075123;28;20041;-76
2024/02/06 13:15:46;;;;;;;12.13;4.40;;;19.20;70.10;;;;;;5069245;28;20029;-76
2024/02/06 13:18:19;;;;;;;12.55;4.68;;;19.40;69.90;;;;;;5056151;28;20041;-73
2024/02/06 13:20:55;;;;;;;14.90;5.10;;;19.60;70.00;;;;;;5054691;28;20025;-74
2024/02/06 13:23:22;;;;;;;19.05;4.90;;;19.80;69.90;;;;;;5052690;28;20033;-74
2024/02/06 13:25:48;;;;;;;18.33;5.10;;;19.80;69.70;;;;;;5053426;28;20045;-75
2024/02/06 13:28:14;;;;;;;13.85;4.78;;;19.90;69.80;;;;;;5053366;28;20055;-76
2024/02/06 13:30:40;;;;;;;12.98;4.68;;;19.90;69.80;;;;;;5053914;28;20479;-75
2024/02/06 13:33:07;;;;;;;14.45;4.68;;;19.90;69.90;;;;;;5054512;28;20039;-75
2024/02/06 13:35:33;;;;;;;13.60;4.80;;;19.90;69.40;;;;;;5054294;28;20308;-75
2024/02/06 13:38:00;;;;;;;10.95;3.95;;;19.80;69.40;;;;;;5053457;28;20057;-74
2024/02/06 13:40:26;;;;;;;13.73;4.70;;;19.70;69.60;;;;;;5052294;28;20033;-75
2024/02/06 13:42:51;;;;;;;17.02;5.22;;;19.60;69.70;;;;;;5053968;28;20087;-76
2024/02/06 13:45:17;;;;;;;17.60;5.13;;;19.70;69.90;;;;;;5035589;28;20061;-76
2024/02/06 13:47:43;;;;;;;15.25;5.10;;;19.70;70.10;;;;;;5053463;28;20033;-75
2024/02/06 13:50:09;;;;;;;13.63;4.40;;;19.70;70.30;;;;;;5053663;28;20038;-75
2024/02/06 13:52:34;;;;;;;11.57;4.85;;;19.70;70.20;;;;;;5053400;28;20112;-74
2024/02/06 13:55:00;;;;;;;15.32;4.47;;;19.70;70.30;;;;;;5053243;28;20029;-74
2024/02/06 13:57:26;;;;;;;13.98;4.57;;;19.70;70.00;;;;;;5053871;28;20044;-76
2024/02/06 13:59:52;;;;;;;12.65;4.50;;;19.80;70.10;;;;;;5053430;28;20036;-75
2024/02/06 14:02:18;;;;;;;15.40;4.82;;;19.70;70.10;;;;;;5035419;28;20041;-75
2024/02/06 14:04:43;;;;;;;13.52;4.60;;;19.80;70.40;;;;;;5053763;28;20036;-75
2024/02/06 14:07:16;;;;;;;13.38;4.72;;;19.70;70.20;;;;;;5035420;28;20398;-76
2024/02/06 14:09:42;;;;;;;12.77;4.53;;;19.60;70.40;;;;;;5053241;28;20055;-75
2024/02/06 14:12:08;;;;;;;18.75;5.13;;;19.50;70.70;;;;;;5015891;28;20040;-75
2024/02/06 14:14:34;;;;;;;20.08;7.35;;;19.40;71.00;;;;;;5032338;28;20033;-76
2024/02/06 14:16:59;;;;;;;15.40;5.07;;;19.30;71.10;;;;;;5032484;28;20040;-75
2024/02/06 14:19:26;;;;;;;17.95;4.63;;;19.30;71.40;;;;;;5031424;28;20151;-75
2024/02/06 14:21:52;;;;;;;21.15;5.13;;;19.30;71.50;;;;;;5032973;28;20025;-76
2024/02/06 14:24:21;;;;;;;16.40;4.93;;;19.30;71.70;;;;;;5033002;28;20042;-75
2024/02/06 14:26:46;;;;;;;11.50;4.65;;;19.30;72.00;;;;;;5033015;28;20042;-74
2024/02/06 14:29:12;;;;;;;365.45;29.77;;;19.30;72.00;;;;;;5032855;28;20108;-73
2024/02/06 14:31:38;;;;;;;16.50;4.75;;;19.30;72.30;;;;;;5032717;28;20044;-73
2024/02/06 14:34:04;;;;;;;15.10;4.38;;;19.20;72.20;;;;;;5032763;28;20030;-73
2024/02/06 14:36:30;;;;;;;17.20;5.00;;;19.20;72.50;;;;;;5032671;28;20033;-73
2024/02/06 14:38:56;;;;;;;17.02;5.18;;;19.10;72.50;;;;;;5031372;28;20118;-74
2024/02/06 14:41:23;;;;;;;15.02;4.78;;;19.00;73.40;;;;;;5031749;28;20033;-73
2024/02/06 14:43:48;;;;;;;14.60;5.10;;;19.00;73.30;;;;;;5032538;28;20029;-74
2024/02/06 14:46:15;;;;;;;16.52;5.22;;;18.90;73.40;;;;;;5032858;28;20467;-75
2024/02/06 14:48:41;;;;;;;16.67;4.93;;;18.80;73.60;;;;;;5032885;28;20036;-76
2024/02/06 14:51:10;;;;;;;22.38;5.50;;;18.70;73.90;;;;;;5032570;28;20029;-75
2024/02/06 14:53:36;;;;;;;16.35;5.03;;;18.70;74.30;;;;;;5032604;28;20033;-74
2024/02/06 14:56:03;;;;;;;12.45;4.38;;;18.60;74.50;;;;;;5031453;28;20068;-74
2024/02/06 14:58:29;;;;;;;14.63;4.75;;;18.50;74.50;;;;;;5032834;28;20427;-78
2024/02/06 15:00:55;;;;;;;16.30;5.20;;;18.40;74.70;;;;;;5032839;28;20463;-74
2024/02/06 15:03:23;;;;;;;14.15;4.28;;;18.30;74.70;;;;;;5032491;28;20076;-75
2024/02/06 15:05:49;;;;;;;14.90;4.50;;;18.30;75.00;;;;;;5032342;28;20100;-75
2024/02/06 15:08:16;;;;;;;13.88;4.30;;;18.30;75.10;;;;;;5031901;28;20475;-77
2024/02/06 15:10:42;;;;;;;13.85;5.10;;;18.30;75.20;;;;;;5032237;28;20448;-76
2024/02/06 15:13:08;;;;;;;13.30;4.55;;;18.20;75.20;;;;;;5032535;28;20045;-76
2024/02/06 15:15:34;;;;;;;12.95;4.07;;;18.20;75.60;;;;;;5036165;28;20026;-75
2024/02/06 15:17:59;;;;;;;14.55;4.68;;;18.10;75.50;;;;;;5036469;28;20069;-75
2024/02/06 15:20:29;;;;;;;12.70;3.67;;;18.10;75.70;;;;;;5036194;28;20034;-75
2024/02/06 15:22:56;;;;;;;15.27;4.50;;;18.10;75.80;;;;;;5036649;28;20417;-76
2024/02/06 15:25:23;;;;;;;14.05;4.50;;;18.10;75.70;;;;;;5036324;28;20107;-76
2024/02/06 15:27:50;;;;;;;15.50;3.85;;;18.00;75.80;;;;;;5036038;28;20065;-76
2024/02/06 15:30:16;;;;;;;11.85;4.05;;;18.00;75.90;;;;;;5036293;28;20037;-75
2024/02/06 15:32:42;;;;;;;17.30;5.10;;;18.00;76.10;;;;;;5035917;28;20060;-75
2024/02/06 15:35:08;;;;;;;18.60;4.45;;;17.90;76.10;;;;;;5035661;28;20045;-77
2024/02/06 15:37:34;;;;;;;16.05;3.95;;;17.90;76.20;;;;;;5035948;28;20045;-75
2024/02/06 15:40:00;;;;;;;18.92;4.68;;;17.90;76.30;;;;;;5036597;28;20164;-74
2024/02/06 15:42:25;;;;;;;16.58;4.35;;;17.90;76.50;;;;;;5042339;28;20084;-74
2024/02/06 15:44:51;;;;;;;11.65;3.80;;;17.80;76.40;;;;;;5043795;28;20065;-75
2024/02/06 15:47:17;;;;;;;11.02;4.43;;;17.70;76.60;;;;;;5035864;28;20057;-75
2024/02/06 15:49:45;;;;;;;11.88;4.40;;;17.60;76.90;;;;;;5035773;28;20112;-75
2024/02/06 15:52:11;;;;;;;13.80;5.25;;;17.60;77.60;;;;;;5036058;28;20037;-74
2024/02/06 15:54:38;;;;;;;16.65;5.40;;;17.50;77.20;;;;;;5036050;28;20076;-76
2024/02/06 15:57:05;;;;;;;13.60;4.88;;;17.40;77.20;;;;;;5035651;28;20033;-75
2024/02/06 15:59:31;;;;;;;15.75;4.88;;;17.30;77.50;;;;;;5018278;28;20396;-75
2024/02/06 16:01:56;;;;;;;14.43;5.30;;;17.30;77.80;;;;;;5036267;28;20040;-76
2024/02/06 16:04:22;;;;;;;15.52;4.95;;;17.20;78.10;;;;;;5035928;28;20087;-75
2024/02/06 16:06:48;;;;;;;14.32;4.88;;;17.10;78.30;;;;;;5035080;28;20491;-75
2024/02/06 16:09:16;;;;;;;21.42;5.30;;;17.00;78.50;;;;;;5033884;28;20586;-74
2024/02/06 16:11:52;;;;;;;14.13;4.70;;;16.90;78.60;;;;;;5035608;28;20034;-74
2024/02/06 16:14:19;;;;;;;13.02;4.13;;;16.80;78.80;;;;;;5033668;28;20072;-75
2024/02/06 16:16:45;;;;;;;15.52;4.22;;;16.80;79.10;;;;;;5035504;28;20029;-75
2024/02/06 16:19:11;;;;;;;14.07;4.40;;;16.70;79.20;;;;;;5035742;28;20075;-74
2024/02/06 16:21:39;;;;;;;14.13;4.32;;;16.50;79.30;;;;;;5018135;28;20030;-76
2024/02/06 16:24:06;;;;;;;22.52;5.20;;;16.50;79.60;;;;;;5017853;28;20533;-75
2024/02/06 16:26:36;;;;;;;15.07;4.18;;;16.40;80.40;;;;;;5016179;28;20529;-75
2024/02/06 16:29:02;;;;;;;16.42;5.18;;;16.30;80.00;;;;;;5035230;28;20483;-75
2024/02/06 16:31:28;;;;;;;12.77;5.07;;;16.20;80.10;;;;;;5017626;28;20125;-76
2024/02/06 16:33:54;;;;;;;13.05;4.93;;;16.20;80.30;;;;;;5017467;28;20045;-75
2024/02/06 16:36:20;;;;;;;15.85;5.00;;;16.10;80.50;;;;;;5035209;28;20056;-74
2024/02/06 16:38:46;;;;;;;15.50;5.20;;;16.10;80.70;;;;;;5035848;28;20045;-75
2024/02/06 16:41:12;;;;;;;18.45;5.50;;;16.00;80.80;;;;;;5036029;28;20026;-75
2024/02/06 16:43:38;;;;;;;19.88;5.97;;;16.00;81.20;;;;;;5035485;28;20129;-75
2024/02/06 16:46:04;;;;;;;14.18;5.88;;;15.90;81.20;;;;;;5033516;28;20037;-77
2024/02/06 16:48:30;;;;;;;17.83;5.93;;;15.80;81.40;;;;;;5034708;28;20095;-76
2024/02/06 16:50:56;;;;;;;20.50;5.13;;;15.90;81.80;;;;;;5034988;28;20030;-77
2024/02/06 16:53:22;;;;;;;17.45;5.28;;;15.80;81.80;;;;;;5034771;28;20029;-76
2024/02/06 16:55:47;;;;;;;16.33;5.70;;;15.70;82.10;;;;;;5034758;28;20136;-78
2024/02/06 16:58:13;;;;;;;16.38;5.47;;;15.60;82.20;;;;;;5034678;28;20041;-77
2024/02/06 17:00:39;;;;;;;14.18;4.80;;;15.60;82.40;;;;;;5034941;28;20502;-74
2024/02/06 17:03:04;;;;;;;13.10;4.50;;;15.60;82.70;;;;;;5035225;28;20061;-77
2024/02/06 17:05:30;;;;;;;15.02;4.75;;;15.50;82.60;;;;;;5016736;28;20034;-75
2024/02/06 17:07:56;;;;;;;12.50;4.57;;;15.50;83.10;;;;;;5016971;28;20030;-75
2024/02/06 17:10:22;;;;;;;19.13;5.47;;;15.50;83.10;;;;;;5034449;28;20030;-76
2024/02/06 17:12:48;;;;;;;14.70;4.82;;;15.40;83.30;;;;;;5034482;28;20491;-76
2024/02/06 17:15:17;;;;;;;17.05;4.70;;;15.40;83.70;;;;;;5034813;28;20099;-76
2024/02/06 17:17:42;;;;;;;18.25;4.75;;;15.30;83.90;;;;;;5034490;28;20053;-75
2024/02/06 17:20:12;;;;;;;14.15;4.90;;;15.30;84.40;;;;;;5034383;28;20493;-74
2024/02/06 17:22:40;;;;;;;19.75;5.95;;;15.30;84.60;;;;;;5035087;28;20045;-76
2024/02/06 17:25:09;;;;;;;14.07;4.72;;;15.30;85.00;;;;;;5034237;28;20022;-74
2024/02/06 17:27:35;;;;;;;20.48;5.30;;;15.20;85.00;;;;;;5034140;28;20049;-73
2024/02/06 17:30:02;;;;;;;14.85;5.45;;;15.20;84.90;;;;;;5033952;28;20049;-76
2024/02/06 17:32:27;;;;;;;17.67;5.00;;;15.20;85.60;;;;;;5034263;28;20041;-76
2024/02/06 17:34:53;;;;;;;16.13;5.05;;;15.20;85.90;;;;;;5034340;28;20527;-77
2024/02/06 17:37:19;;;;;;;13.90;5.30;;;15.20;86.30;;;;;;5033724;28;20042;-76
2024/02/06 17:39:44;;;;;;;20.42;6.13;;;15.20;86.40;;;;;;5034159;28;20029;-79
2024/02/06 17:42:10;;;;;;;18.10;6.18;;;15.20;86.60;;;;;;5034676;28;20448;-81
2024/02/06 17:44:36;;;;;;;17.02;6.00;;;15.10;86.60;;;;;;5033898;28;20034;-77
2024/02/06 17:47:02;;;;;;;19.40;5.90;;;15.10;86.80;;;;;;5034029;28;20044;-76
2024/02/06 17:49:28;;;;;;;14.75;5.75;;;15.10;87.00;;;;;;5033899;28;20415;-82
2024/02/06 17:51:54;;;;;;;20.83;6.53;;;15.10;87.30;;;;;;5033652;28;20037;-78
2024/02/06 17:54:19;;;;;;;15.90;5.60;;;15.10;87.30;;;;;;5043755;28;20026;-78
2024/02/06 17:56:45;;;;;;;19.35;6.18;;;15.10;87.50;;;;;;5042120;28;20120;-77
2024/02/06 17:59:12;;;;;;;17.58;6.03;;;15.10;87.60;;;;;;5015616;28;20056;-75
2024/02/06 18:01:38;;;;;;;15.73;6.22;;;15.10;87.90;;;;;;5033542;28;20037;-76
2024/02/06 18:04:04;;;;;;;21.42;7.15;;;15.10;87.90;;;;;;5033741;28;20029;-74
2024/02/06 18:06:30;;;;;;;20.63;6.53;;;15.10;87.90;;;;;;5033411;28;20125;-77
2024/02/06 18:08:56;;;;;;;18.60;6.72;;;15.10;88.20;;;;;;5016320;28;20522;-76
2024/02/06 18:11:21;;;;;;;21.73;8.20;;;15.10;88.10;;;;;;5033014;28;20034;-77
2024/02/06 18:13:47;;;;;;;16.98;7.68;;;15.00;88.10;;;;;;5015534;28;20064;-76
2024/02/06 18:16:13;;;;;;;16.30;7.10;;;15.00;88.20;;;;;;5015610;28;20033;-77
2024/02/06 18:18:40;;;;;;;16.75;7.90;;;15.00;88.30;;;;;;5033037;28;20509;-76
2024/02/06 18:21:05;;;;;;;20.85;7.50;;;15.00;88.40;;;;;;5033117;28;20026;-77
2024/02/06 18:23:32;;;;;;;18.30;8.23;;;15.00;88.50;;;;;;5033134;28;20407;-76
2024/02/06 18:26:01;;;;;;;22.33;9.00;;;15.00;88.60;;;;;;5032873;28;20084;-77
2024/02/06 18:28:27;;;;;;;20.45;9.18;;;15.00;88.50;;;;;;5044309;28;20048;-79
2024/02/06 18:30:53;;;;;;;21.33;8.93;;;14.90;88.60;;;;;;5049044;28;20041;-78
2024/02/06 18:33:18;;;;;;;26.73;9.27;;;14.90;88.70;;;;;;5052342;28;20045;-76
2024/02/06 18:35:44;;;;;;;20.25;8.60;;;14.90;89.00;;;;;;5052376;28;20036;-77
2024/02/06 18:38:10;;;;;;;24.70;12.32;;;14.90;88.90;;;;;;5033788;28;20044;-74
2024/02/06 18:40:36;;;;;;;26.90;10.20;;;14.80;88.90;;;;;;5052159;28;20033;-78
2024/02/06 18:43:02;;;;;;;20.77;9.43;;;14.80;89.80;;;;;;5052345;28;20032;-78
2024/02/06 18:45:28;;;;;;;21.48;10.07;;;14.80;89.10;;;;;;5045196;28;20090;-78
2024/02/06 18:47:53;;;;;;;24.35;10.48;;;14.70;89.10;;;;;;5033641;28;20038;-76
2024/02/06 18:50:19;;;;;;;22.27;10.05;;;14.70;89.50;;;;;;5035199;28;20025;-76
2024/02/06 18:52:45;;;;;;;19.23;10.13;;;14.60;89.50;;;;;;5041678;28;20398;-79
2024/02/06 18:55:11;;;;;;;21.58;10.60;;;14.70;89.70;;;;;;5032451;28;20026;-77
2024/02/06 18:57:40;;;;;;;23.13;11.00;;;14.70;89.60;;;;;;5042355;28;20037;-75
2024/02/06 19:00:10;;;;;;;23.33;10.52;;;14.70;89.80;;;;;;5043331;28;20033;-77
2024/02/06 19:02:36;;;;;;;24.38;12.35;;;14.60;89.70;;;;;;5039766;28;20443;-77
2024/02/06 19:05:03;;;;;;;26.42;11.55;;;14.60;89.80;;;;;;5036541;28;20034;-83
2024/02/06 19:07:29;;;;;;;23.85;11.70;;;14.60;90.00;;;;;;5035599;28;20025;-80
2024/02/06 19:09:55;;;;;;;21.92;11.55;;;14.60;90.00;;;;;;5033845;28;20037;-82
2024/02/06 19:12:21;;;;;;;27.50;12.70;;;14.50;89.90;;;;;;5033106;28;20053;-83
2024/02/06 19:14:46;;;;;;;27.77;12.55;;;14.50;90.00;;;;;;5032740;28;20033;-78
2024/02/06 19:17:12;;;;;;;22.38;12.70;;;14.50;90.00;;;;;;5033382;28;20038;-82
2024/02/06 19:19:38;;;;;;;24.23;12.13;;;14.40;90.00;;;;;;5034419;28;20045;-76
2024/02/06 19:22:04;;;;;;;25.83;12.13;;;14.40;90.00;;;;;;5034126;28;20112;-77
2024/02/06 19:24:29;;;;;;;25.88;12.68;;;14.40;90.20;;;;;;5033033;28;20063;-84
2024/02/06 19:26:55;;;;;;;22.58;12.40;;;14.30;90.10;;;;;;5032339;28;20042;-75
2024/02/06 19:29:21;;;;;;;24.27;12.88;;;14.20;90.10;;;;;;5032047;28;20399;-75
2024/02/06 19:31:47;;;;;;;23.60;12.73;;;14.20;90.20;;;;;;5014859;28;20033;-76
2024/02/06 19:34:12;;;;;;;24.95;12.80;;;14.20;90.20;;;;;;5033166;28;20029;-78
2024/02/06 19:36:40;;;;;;;24.88;13.25;;;14.20;90.40;;;;;;5033510;28;20052;-75
2024/02/06 19:39:07;;;;;;;28.27;13.35;;;14.10;90.30;;;;;;5032636;28;20061;-77
2024/02/06 19:41:33;;;;;;;24.92;13.82;;;14.10;90.40;;;;;;5032269;28;20037;-78
2024/02/06 19:44:01;;;;;;;23.13;13.45;;;14.20;90.40;;;;;;5032470;28;20432;-73
2024/02/06 19:46:27;;;;;;;27.60;13.88;;;14.20;90.40;;;;;;5045790;28;20069;-75
2024/02/06 19:48:53;;;;;;;26.05;13.10;;;14.20;90.40;;;;;;5051986;28;20064;-75
2024/02/06 19:51:19;;;;;;;25.48;13.90;;;14.20;90.40;;;;;;5051837;28;20060;-74
2024/02/06 19:53:46;;;;;;;23.90;13.90;;;14.20;90.40;;;;;;5052095;28;20025;-75
2024/02/06 19:56:13;;;;;;;26.42;14.52;;;14.10;90.50;;;;;;5052239;28;20029;-77
2024/02/06 19:58:40;;;;;;;23.05;13.40;;;14.00;90.60;;;;;;5052894;28;20120;-74
2024/02/06 20:01:06;;;;;;;31.08;15.07;;;14.00;90.70;;;;;;5054691;28;20029;-75
2024/02/06 20:03:32;;;;;;;26.80;16.60;;;14.00;90.70;;;;;;5055774;28;20409;-75
2024/02/06 20:05:57;;;;;;;28.33;16.13;;;13.90;90.70;;;;;;5055882;28;20028;-75
2024/02/06 20:08:27;;;;;;;26.00;14.18;;;13.90;90.70;;;;;;5069038;28;20060;-73
2024/02/06 20:10:53;;;;;;;29.35;14.30;;;13.90;90.70;;;;;;5056711;28;20033;-78
2024/02/06 20:13:19;;;;;;;22.55;13.85;;;13.90;90.70;;;;;;5055432;28;20479;-75
2024/02/06 20:15:45;;;;;;;24.33;13.32;;;13.90;90.80;;;;;;5054945;28;20487;-74
2024/02/06 20:18:11;;;;;;;24.27;13.43;;;13.90;90.80;;;;;;5055230;28;20039;-78
2024/02/06 20:20:36;;;;;;;23.65;13.43;;;13.90;90.80;;;;;;5055536;28;20037;-73
2024/02/06 20:23:04;;;;;;;27.67;13.13;;;13.90;90.80;;;;;;5055455;28;20025;-77
2024/02/06 20:25:30;;;;;;;24.33;13.50;;;13.90;90.80;;;;;;5056466;28;20491;-76
2024/02/06 20:27:55;;;;;;;25.58;13.32;;;14.00;90.90;;;;;;5055530;28;20040;-75
2024/02/06 20:30:21;;;;;;;25.35;12.50;;;14.00;90.90;;;;;;5054960;28;20040;-74
2024/02/06 20:32:47;;;;;;;26.88;12.77;;;14.00;90.80;;;;;;5055085;28;20040;-74
2024/02/06 20:35:12;;;;;;;23.35;12.35;;;14.00;90.80;;;;;;5057256;28;20040;-77
2024/02/06 20:37:38;;;;;;;22.48;12.07;;;14.00;90.80;;;;;;5055066;28;20120;-76
2024/02/06 20:40:05;;;;;;;25.80;13.27;;;14.00;90.80;;;;;;5054996;28;20045;-76
2024/02/06 20:42:30;;;;;;;23.95;13.23;;;13.90;90.80;;;;;;5054708;28;20072;-76
2024/02/06 20:44:56;;;;;;;28.17;13.18;;;13.90;90.90;;;;;;5054731;28;20487;-76
2024/02/06 20:47:22;;;;;;;30.35;14.30;;;13.90;90.90;;;;;;5054903;28;20036;-76
2024/02/06 20:49:48;;;;;;;26.40;13.82;;;13.80;90.90;;;;;;5056518;28;20032;-76
2024/02/06 20:52:14;;;;;;;24.42;14.15;;;13.80;91.00;;;;;;5056721;28;20083;-76
2024/02/06 20:54:39;;;;;;;25.55;13.63;;;13.80;91.10;;;;;;5056852;28;20040;-76
2024/02/06 20:57:05;;;;;;;27.08;14.32;;;13.80;91.10;;;;;;5037757;28;20087;-76
2024/02/06 20:59:33;;;;;;;22.80;14.25;;;13.80;91.20;;;;;;5057303;28;20051;-76
2024/02/06 21:02:00;;;;;;;30.13;13.32;;;13.80;91.20;;;;;;5056197;28;20033;-77
2024/02/06 21:04:26;;;;;;;23.38;12.18;;;13.80;91.10;;;;;;5054750;28;20053;-76
2024/02/06 21:06:52;;;;;;;21.23;10.52;;;13.80;91.10;;;;;;5036698;28;20033;-75
2024/02/06 21:09:17;;;;;;;22.88;11.27;;;13.90;91.10;;;;;;5054843;28;20039;-76
2024/02/06 21:11:43;;;;;;;17.88;10.27;;;13.90;91.20;;;;;;5053956;28;20029;-75
2024/02/06 21:14:09;;;;;;;26.67;12.05;;;13.90;91.10;;;;;;5060088;28;20092;-89
2024/02/06 21:16:34;;;;;;;24.17;11.02;;;13.90;91.10;;;;;;5056750;28;20037;-82
2024/02/06 21:19:00;;;;;;;20.45;10.70;;;14.00;91.10;;;;;;5043704;28;20049;-85
2024/02/06 21:21:26;;;;;;;22.38;10.00;;;14.00;91.10;;;;;;5038439;28;20034;-85
2024/02/06 21:23:53;;;;;;;23.25;10.57;;;14.00;91.10;;;;;;5038179;28;20075;-84
2024/02/06 21:26:19;;;;;;;22.40;10.15;;;14.00;91.10;;;;;;5018722;28;20128;-85
2024/02/06 21:28:45;;;;;;;22.05;10.35;;;14.00;91.10;;;;;;5035424;28;20525;-84
2024/02/06 21:31:11;;;;;;;25.25;9.68;;;13.90;91.00;;;;;;5017257;28;20429;-82
2024/02/06 21:33:37;;;;;;;20.52;9.63;;;13.90;91.00;;;;;;5035093;28;20052;-82
2024/02/06 21:36:03;;;;;;;21.00;9.75;;;13.90;91.10;;;;;;5017252;28;20033;-84
2024/02/06 21:38:29;;;;;;;18.73;9.30;;;13.90;91.00;;;;;;5034681;28;20038;-82
2024/02/06 21:40:57;;;;;;;21.60;9.93;;;13.90;91.00;;;;;;5035166;28;20021;-82
2024/02/06 21:43:23;;;;;;;22.15;10.43;;;13.90;91.10;;;;;;5036221;28;20068;-83
2024/02/06 21:45:49;;;;;;;23.38;10.60;;;13.90;91.00;;;;;;5044970;28;20029;-82
2024/02/06 21:48:14;;;;;;;17.75;9.10;;;13.80;90.90;;;;;;5055293;28;20508;-83
2024/02/06 21:50:40;;;;;;;21.60;9.90;;;13.80;91.10;;;;;;5055558;28;20043;-82
2024/02/06 21:53:06;;;;;;;20.33;10.52;;;13.80;91.10;;;;;;5037596;28;20095;-83
2024/02/06 21:55:32;;;;;;;22.23;12.23;;;13.80;91.10;;;;;;5058089;28;20091;-83
2024/02/06 21:57:58;;;;;;;28.73;11.75;;;13.70;91.10;;;;;;5063697;28;20506;-87
2024/02/06 22:00:23;;;;;;;23.20;10.30;;;13.70;91.10;;;;;;5067646;28;20045;-87
2024/02/06 22:02:49;;;;;;;20.40;10.63;;;13.70;91.10;;;;;;5067657;28;20048;-87
2024/02/06 22:05:15;;;;;;;22.52;11.40;;;13.70;91.10;;;;;;5062091;28;20379;-86
2024/02/06 22:07:41;;;;;;;24.70;9.73;;;13.70;91.20;;;;;;5057696;28;20060;-82
2024/02/06 22:10:08;;;;;;;21.75;9.77;;;13.70;91.20;;;;;;5050686;28;20037;-85
2024/02/06 22:12:34;;;;;;;19.95;9.32;;;13.70;91.20;;;;;;5066820;28;20047;-83
2024/02/06 22:14:59;;;;;;;21.10;10.07;;;13.60;91.10;;;;;;5060287;28;20040;-86
2024/02/06 22:17:25;;;;;;;22.83;9.38;;;13.60;91.20;;;;;;5060094;28;20040;-87
2024/02/06 22:19:51;;;;;;;19.70;9.50;;;13.60;91.20;;;;;;5069322;28;20045;-87
2024/02/06 22:22:17;;;;;;;26.27;9.60;;;13.60;91.20;;;;;;5058164;28;20104;-86
2024/02/06 22:24:46;;;;;;;21.05;9.95;;;13.60;91.20;;;;;;5054751;28;20041;-86
2024/02/06 22:27:12;;;;;;;21.92;11.00;;;13.60;91.20;;;;;;5071793;28;20037;-87
2024/02/06 22:29:39;;;;;;;25.33;13.73;;;13.60;91.10;;;;;;5064518;28;20040;-86
2024/02/06 22:32:06;;;;;;;29.77;14.23;;;13.60;91.20;;;;;;5055990;28;20403;-86
2024/02/06 22:34:32;;;;;;;27.38;13.70;;;13.60;91.30;;;;;;5057548;28;20051;-86
2024/02/06 22:36:58;;;;;;;26.27;13.85;;;13.50;91.20;;;;;;5067705;28;20052;-87
2024/02/06 22:39:24;;;;;;;25.55;13.25;;;13.50;91.20;;;;;;5063567;28;20419;-84
2024/02/06 22:41:50;;;;;;;28.42;15.10;;;13.50;91.50;;;;;;5062405;28;20056;-84
2024/02/06 22:44:16;;;;;;;27.52;13.63;;;13.50;91.20;;;;;;5055673;28;20043;-85
2024/02/06 22:46:41;;;;;;;22.58;12.38;;;13.50;91.20;;;;;;5054634;28;20025;-84
2024/02/06 22:49:11;;;;;;;28.20;13.55;;;13.40;91.30;;;;;;5053923;28;20041;-85
2024/02/06 22:51:37;;;;;;;22.42;13.52;;;13.40;91.20;;;;;;5055352;28;20108;-88
2024/02/06 22:54:08;;;;;;;24.92;13.48;;;13.50;91.30;;;;;;5054302;28;20542;-86
2024/02/06 22:59:10;;;;;;;26.73;16.60;;;13.40;91.30;;;;;;5423481;22;20449;-88
2024/02/06 23:01:36;;;;;;;31.42;17.83;;;13.40;91.30;;;;;;5036291;28;20037;-86
2024/02/06 23:04:04;;;;;;;28.55;19.27;;;13.40;91.30;;;;;;5053776;28;20087;-86
2024/02/06 23:06:34;;;;;;;33.30;20.08;;;13.30;91.30;;;;;;5054259;28;20033;-85
2024/02/06 23:09:01;;;;;;;31.17;20.60;;;13.30;91.40;;;;;;5054623;28;20068;-86
2024/02/06 23:11:26;;;;;;;30.45;20.50;;;13.30;91.30;;;;;;5054001;28;20033;-87
2024/02/06 23:13:52;;;;;;;33.45;21.05;;;13.30;91.50;;;;;;5055434;28;20064;-87
2024/02/06 23:16:18;;;;;;;37.05;21.92;;;13.20;91.30;;;;;;5061194;28;20052;-86
2024/02/06 23:18:44;;;;;;;38.88;22.02;;;13.20;91.50;;;;;;5071003;28;20048;-85
2024/02/06 23:21:15;;;;;;;34.75;21.05;;;13.20;91.50;;;;;;5057511;28;20151;-85
2024/02/06 23:23:41;;;;;;;38.08;23.30;;;13.10;91.60;;;;;;5057090;28;20047;-85
2024/02/06 23:26:11;;;;;;;32.72;21.25;;;13.10;91.70;;;;;;5056797;28;20444;-84
2024/02/06 23:28:38;;;;;;;39.38;23.67;;;13.10;91.50;;;;;;5056738;28;20056;-84
2024/02/06 23:31:05;;;;;;;37.33;24.35;;;13.10;91.60;;;;;;5053350;28;20021;-85
2024/02/06 23:33:30;;;;;;;39.10;23.25;;;13.00;91.60;;;;;;5053829;28;20064;-86
2024/02/06 23:35:56;;;;;;;36.08;22.92;;;12.90;91.60;;;;;;5056432;28;20040;-85
2024/02/06 23:38:22;;;;;;;43.25;25.70;;;12.90;91.70;;;;;;5041216;28;20071;-84
2024/02/06 23:40:47;;;;;;;36.50;24.95;;;12.80;91.70;;;;;;5072179;28;20025;-84
2024/02/06 23:43:14;;;;;;;40.17;24.33;;;12.70;91.80;;;;;;5061607;28;20043;-84
2024/02/06 23:45:40;;;;;;;42.58;25.10;;;12.70;91.90;;;;;;5057197;28;20076;-85
2024/02/06 23:48:07;;;;;;;43.95;26.20;;;12.70;92.00;;;;;;5058141;28;20029;-84
2024/02/06 23:50:33;;;;;;;40.22;24.95;;;12.70;92.00;;;;;;5060985;28;20037;-84
2024/02/06 23:53:01;;;;;;;42.90;26.73;;;12.70;92.00;;;;;;5059663;28;20025;-84
2024/02/06 23:55:26;;;;;;;36.13;25.42;;;12.70;92.10;;;;;;5056716;28;20072;-84
2024/02/06 23:57:53;;;;;;;37.53;24.42;;;12.70;92.20;;;;;;5059657;28;20072;-84
